航空気象通報

ウインドサーファーのための航空気象通報による風予報です。

9/19-9/21の航空気象通報

2017年09月19日 22時57分49秒 | TAF
羽田空港
TAF RJTT 191105Z 1912/2018 34006KT 9999 FEW020
BECMG 1922/2000 12008KT
BECMG 2000/2003 19012KT
日本時間19日21時-20日07時:340度から6ノットの風
07-09時:風が変化
09時:120度から8ノットの風
09-12時:風が変化
12時-21日03時:190度から12ノットの風


静岡空港
TAF RJNS 191105Z 1912/2018 26010KT 9999 FEW020
日本時間19日21時-21日03時:260度から10ノットの風


福岡空港
TAF RJFF 191106Z 1912/2018 15005KT 9999 FEW030
BECMG 2000/2003 26007KT
BECMG 2006/2009 16005KT
日本時間19日21時-20日09時:150度から5ノットの風
09-12時:風が変化
12-15時:260度から7ノットの風
15-18時:風が変化
18時-21日03時:160度から5ノットの風


那覇空港
TAF ROAH 191105Z 1912/2018 13005KT 9999 FEW020
TEMPO 2000/2006 4000 SHRA
日本時間19日21時-21日03時:130度から5ノットの風

但し、20日09-15時の間:ときどき

石垣空港
TAF ROIG 191107Z 1912/2018 10008KT 9999 FEW020
日本時間19日21時-21日03時:100度から8ノットの風


マウイのカフルイ空港
PHOG 191309Z 1913/2012 06012KT P6SM FEW060
FM192000 06018G26KT P6SM FEW035 SCT060
FM200600 06012KT P6SM FEW035 SCT060 AMD LTD TO VIS AND WIND TIL 191600
ハワイ時間19日02-10時:060度から12ノットの風
10-20時:060度から18ノット、突風26ノット
20時-20日02時:060度から12ノットの風


サイパン空港
TAF PGSN 191137Z 1912/2012 07011KT P6SM VCSH FEW022 SCT040
マリアナ時間19日22時-20日22時:070度から11ノットの風
コメント
この記事をはてなブックマークに追加